Airfield :
LOGIN :

Register | Disclaimer

   EN    FR    IT 

 










Legend :    VFR   Marginal VFR   IFR   Intensive IFR   Very Intensive IFR
Visi :
Ceiling :
>= 8 km
>= 3000ft
5 to 8 km
1000 to 3000 ft
1500m to 5 km
500 to 1000 ft
800 to 1500m
200 to 500 ft
< 800m
< 200 ft
Symbols :   Thunderstorms  Fog  Heavy snow  Heavy precipitations  Wind > 20 kt
SIGMETs :     Misc.  Thunderstorms  Icing  Turbulence  Mountain Waves  Volcanic Ashes






- Airport Elevation : 935 ft


EBFS - Florennes

CURRENT METAR :
  • 220155Z AUTO 20009KT 9999 BKN006/// BKN048/// OVC110/// 10/09 Q1022 YLO

EXPIRED METARs :
  • 220125Z AUTO 21010KT 9999 BKN006/// 10/09 Q1023 YLO
  • 220055Z AUTO 21009KT 9999 BKN006/// OVC110/// 10/09 Q1023 YLO
  • 220045Z AUTO 20010KT 9999 SCT006/// BKN008/// BKN100/// 10/09 Q1023 YLO
  • 220025Z AUTO 20009KT 9999 BKN007/// BKN009/// OVC110/// 10/09 Q1023 GRN
  • 212355Z AUTO 19009KT 9999 SCT008/// BKN010/// BKN100/// 10/09 Q1022 GRN
  • 212325Z AUTO 19007KT 9999 FEW008/// BKN010/// OVC100/// 10/09 Q1022 GRN

TAF TAF EBFS
Valid from the 21 at 19:00 until the 22 at 07:00 UTC


211541Z 2119/2207 20010KT 9999 FEW030 SCT230
BECMG 2123/2201 20007KT 5000 BR FEW250
BECMG 2201/2203 21004KT 3000 BR
PROB40
TEMPO 2203/2207 1500 BR SCT002
PROB30
TEMPO 2204/2207 600 FG SCT001 BKN002



MET'MAP, your aeronautical weather chart ! - Copyright ORBIFLY December 2007 - Disclaimer

ORBIFLY MET'MAP TEAM :

Programming & Development : Alexandra Zaïnal
Concept & Development : Baudouin d'Aumeries
Co-Development & Prog : Marc-Olivier Méhu
Technical & hardware support : Manuel Goepfert

Contact : metmap@orbifly.com




SOURCES & CREDITS :

   NOAA